createdAt,value
2023-02-21T00:01:48.559Z,10.38
2023-02-21T00:04:34.050Z,10.27
2023-02-21T00:07:19.503Z,10.98
2023-02-21T00:10:04.949Z,10.70
2023-02-21T00:12:50.216Z,10.75
2023-02-21T00:15:35.664Z,9.40
2023-02-21T00:18:21.060Z,9.63
2023-02-21T00:21:06.044Z,8.68
2023-02-21T00:23:55.343Z,8.20
2023-02-21T00:26:41.347Z,8.30
2023-02-21T00:29:27.343Z,8.45
2023-02-21T00:32:13.242Z,8.82
2023-02-21T00:34:58.276Z,8.45
2023-02-21T00:37:43.762Z,8.13
2023-02-21T00:40:33.156Z,8.40
2023-02-21T00:43:18.768Z,7.80
2023-02-21T00:46:04.220Z,8.13
2023-02-21T00:48:49.620Z,8.48
2023-02-21T00:51:35.365Z,8.38
2023-02-21T00:54:20.897Z,8.63
2023-02-21T00:57:05.582Z,8.30
2023-02-21T00:59:51.033Z,8.63
2023-02-21T01:02:36.358Z,8.00
2023-02-21T01:05:21.665Z,8.02
2023-02-21T01:08:07.157Z,8.20
2023-02-21T01:10:52.563Z,8.10
2023-02-21T01:13:37.475Z,8.85
2023-02-21T01:16:26.137Z,8.50
2023-02-21T01:19:11.505Z,8.52
2023-02-21T01:21:57.053Z,8.45
2023-02-21T01:24:42.366Z,9.15
2023-02-21T01:27:27.895Z,8.40
2023-02-21T01:30:12.986Z,8.18
2023-02-21T01:32:57.953Z,7.93
2023-02-21T01:35:43.591Z,8.43
2023-02-21T01:38:28.984Z,8.45
2023-02-21T01:41:14.307Z,8.85
2023-02-21T01:44:26.075Z,8.52
2023-02-21T01:47:11.524Z,8.20
2023-02-21T01:50:02.294Z,8.30
2023-02-21T01:52:47.383Z,7.85
2023-02-21T01:55:33.134Z,7.55
2023-02-21T01:58:18.354Z,6.93
2023-02-21T02:01:03.665Z,8.13
2023-02-21T02:03:49.597Z,7.30
2023-02-21T02:06:36.342Z,7.15
2023-02-21T02:09:36.272Z,7.70
2023-02-21T02:12:23.898Z,7.37
2023-02-21T02:15:21.163Z,6.78
2023-02-21T02:18:07.210Z,7.72
2023-02-21T02:21:15.997Z,6.97
2023-02-21T02:24:10.795Z,7.10
2023-02-21T02:27:11.617Z,7.28
2023-02-21T02:30:03.413Z,7.53
2023-02-21T02:32:51.095Z,7.15
2023-02-21T02:35:30.398Z,6.72
2023-02-21T02:38:08.844Z,6.55
2023-02-21T02:41:06.400Z,7.57
2023-02-21T02:43:42.128Z,6.45
2023-02-21T02:46:16.568Z,7.55
2023-02-21T02:48:44.583Z,6.35
2023-02-21T02:51:13.659Z,6.68
2023-02-21T02:53:41.026Z,7.03
2023-02-21T02:56:16.693Z,6.72
2023-02-21T02:58:59.003Z,6.57
2023-02-21T03:01:48.893Z,6.17
2023-02-21T03:04:45.085Z,6.95
2023-02-21T03:07:17.536Z,6.85
2023-02-21T03:10:02.607Z,5.85
2023-02-21T03:12:51.710Z,5.35
2023-02-21T03:15:40.398Z,5.65
2023-02-21T03:18:17.068Z,5.32
2023-02-21T03:20:48.566Z,5.22
2023-02-21T03:23:18.349Z,4.90
2023-02-21T03:25:48.352Z,4.72
2023-02-21T03:28:15.206Z,5.30
2023-02-21T03:30:44.419Z,4.93
2023-02-21T03:33:11.294Z,4.68
2023-02-21T03:35:37.875Z,4.62
2023-02-21T03:38:04.580Z,4.12
2023-02-21T03:40:33.647Z,4.87
2023-02-21T03:43:02.094Z,4.55
2023-02-21T03:45:28.709Z,4.45
2023-02-21T03:47:55.353Z,4.85
2023-02-21T03:50:21.926Z,4.72
2023-02-21T03:52:48.521Z,4.57
2023-02-21T03:55:15.426Z,4.18
2023-02-21T03:57:42.042Z,4.72
2023-02-21T04:00:09.318Z,4.00
2023-02-21T04:02:35.893Z,3.70
2023-02-21T04:05:03.278Z,4.70
2023-02-21T04:07:29.860Z,4.25
2023-02-21T04:09:56.454Z,3.67
2023-02-21T04:12:23.070Z,3.72
2023-02-21T04:14:49.731Z,4.25
2023-02-21T04:17:16.347Z,4.10
2023-02-21T04:19:43.245Z,2.85
2023-02-21T04:22:09.920Z,3.12
2023-02-21T04:24:36.506Z,3.28
2023-02-21T04:27:03.484Z,2.90
2023-02-21T04:29:30.077Z,2.67
2023-02-21T04:31:56.953Z,2.47
2023-02-21T04:34:23.612Z,2.22
2023-02-21T04:36:50.215Z,2.28
2023-02-21T04:39:17.116Z,1.92
2023-02-21T04:41:43.679Z,1.50
2023-02-21T04:44:10.647Z,1.73
2023-02-21T04:46:37.296Z,1.42
2023-02-21T04:49:04.014Z,1.60
2023-02-21T04:51:30.709Z,1.50
2023-02-21T04:53:57.453Z,1.70
2023-02-21T04:56:27.492Z,1.62
2023-02-21T04:58:54.132Z,1.80
2023-02-21T05:01:22.015Z,1.75
2023-02-21T05:03:49.352Z,1.30
2023-02-21T05:06:24.413Z,1.67
2023-02-21T05:08:51.088Z,1.55
2023-02-21T05:11:19.214Z,1.62
2023-02-21T05:13:46.478Z,1.33
2023-02-21T05:16:13.431Z,1.10
2023-02-21T05:18:44.033Z,1.40
2023-02-21T05:21:10.708Z,1.60
2023-02-21T05:23:40.935Z,1.42
2023-02-21T05:26:10.795Z,1.52
2023-02-21T05:28:38.942Z,1.62
2023-02-21T05:31:06.654Z,1.50
2023-02-21T05:33:34.053Z,1.73
2023-02-21T05:36:01.013Z,1.75
2023-02-21T05:38:27.739Z,1.70
2023-02-21T05:40:54.339Z,1.73
2023-02-21T05:43:21.575Z,1.80
2023-02-21T05:45:48.479Z,2.45
2023-02-21T05:48:15.316Z,1.83
2023-02-21T05:50:42.009Z,1.60
2023-02-21T05:53:10.372Z,1.85
2023-02-21T05:55:37.489Z,1.40
2023-02-21T05:58:04.340Z,1.52
2023-02-21T06:00:31.633Z,1.60
2023-02-21T06:03:03.705Z,1.67
2023-02-21T06:05:31.316Z,1.85
2023-02-21T06:07:59.551Z,1.50
2023-02-21T06:10:26.154Z,1.30
2023-02-21T06:12:52.750Z,1.80
2023-02-21T06:15:19.475Z,1.30
2023-02-21T06:17:46.075Z,1.60
2023-02-21T06:20:15.001Z,1.30
2023-02-21T06:22:43.807Z,1.45
2023-02-21T06:25:11.551Z,1.60
2023-02-21T06:27:38.197Z,1.60
2023-02-21T06:30:06.495Z,1.62
2023-02-21T06:32:33.481Z,1.30
2023-02-21T06:35:00.269Z,1.40
2023-02-21T06:37:27.310Z,1.77
2023-02-21T06:39:53.998Z,1.60
2023-02-21T06:42:20.686Z,1.42
2023-02-21T06:44:48.877Z,1.62
2023-02-21T06:47:16.612Z,1.58
2023-02-21T06:49:43.479Z,1.70
2023-02-21T06:52:11.144Z,2.72
2023-02-21T06:54:38.083Z,1.80
2023-02-21T06:57:05.767Z,1.87
2023-02-21T06:59:32.982Z,1.62
2023-02-21T07:01:59.946Z,1.95
2023-02-21T07:04:26.752Z,1.62
2023-02-21T07:06:54.900Z,2.10
2023-02-21T07:09:21.639Z,1.40
2023-02-21T07:11:48.468Z,14.35
2023-02-21T07:14:22.763Z,6.68
2023-02-21T07:16:50.830Z,7.55
2023-02-21T07:21:44.069Z,2.92
2023-02-21T07:24:11.866Z,2.47
2023-02-21T07:26:38.764Z,2.17
2023-02-21T07:29:06.437Z,2.25
2023-02-21T07:31:33.878Z,1.80
2023-02-21T07:34:00.612Z,1.70
2023-02-21T07:36:29.696Z,1.70
2023-02-21T07:38:56.362Z,1.27
2023-02-21T07:41:23.262Z,1.65
2023-02-21T07:43:52.768Z,1.55
2023-02-21T07:46:19.754Z,1.75
2023-02-21T07:48:47.570Z,2.25
2023-02-21T07:51:16.596Z,1.65
2023-02-21T07:53:43.384Z,1.48
2023-02-21T07:56:14.922Z,1.73
2023-02-21T07:58:50.458Z,1.75
2023-02-21T08:01:17.483Z,1.30
2023-02-21T08:04:06.000Z,1.45
2023-02-21T08:06:47.430Z,3.85
2023-02-21T08:09:14.062Z,2.62
2023-02-21T08:17:08.007Z,3.70
2023-02-21T08:19:34.676Z,2.75
2023-02-21T08:22:01.244Z,3.30
2023-02-21T08:24:27.839Z,2.67
2023-02-21T08:26:54.437Z,2.72
2023-02-21T08:29:21.410Z,2.17
2023-02-21T08:31:48.117Z,2.40
2023-02-21T08:34:15.004Z,4.10
2023-02-21T08:36:45.677Z,6.22
2023-02-21T08:39:15.168Z,5.75
2023-02-21T08:41:46.984Z,3.12
2023-02-21T08:44:16.386Z,2.47
2023-02-21T08:46:43.916Z,1.70
2023-02-21T08:49:10.930Z,2.12
2023-02-21T08:51:37.898Z,2.20
2023-02-21T08:54:04.623Z,1.60
2023-02-21T08:56:31.441Z,2.08
2023-02-21T08:58:58.528Z,1.40
2023-02-21T09:01:31.816Z,1.65
2023-02-21T09:03:58.466Z,1.87
2023-02-21T09:06:25.117Z,1.77
2023-02-21T09:08:55.192Z,1.62
2023-02-21T09:11:21.828Z,1.98
2023-02-21T09:13:48.468Z,1.60
2023-02-21T09:16:15.185Z,2.37
2023-02-21T09:18:41.873Z,2.70
2023-02-21T09:21:08.519Z,1.45
2023-02-21T09:23:35.071Z,1.92
2023-02-21T09:26:01.796Z,1.58
2023-02-21T09:28:29.445Z,1.48
2023-02-21T09:30:56.048Z,1.65
2023-02-21T09:33:25.071Z,2.28
2023-02-21T09:35:51.916Z,3.10
2023-02-21T09:38:18.568Z,2.00
2023-02-21T09:43:40.516Z,3.30
2023-02-21T09:46:35.536Z,1.85
2023-02-21T09:49:05.117Z,1.95
2023-02-21T09:51:34.201Z,1.35
2023-02-21T09:56:46.163Z,2.03
2023-02-21T09:59:20.308Z,1.70
2023-02-21T10:02:04.071Z,1.80
2023-02-21T10:05:06.831Z,1.35
2023-02-21T10:07:50.684Z,1.50
2023-02-21T10:10:45.319Z,1.60
2023-02-21T10:13:37.625Z,1.40
2023-02-21T10:16:21.441Z,1.83
2023-02-21T10:19:12.980Z,1.98
2023-02-21T10:21:53.051Z,1.80
2023-02-21T10:24:24.355Z,1.75
2023-02-21T10:27:05.706Z,1.58
2023-02-21T10:29:56.358Z,2.53
2023-02-21T10:32:25.450Z,1.40
2023-02-21T10:34:54.915Z,1.60
2023-02-21T10:37:39.108Z,1.62
2023-02-21T10:40:41.456Z,1.30
2023-02-21T10:43:51.990Z,1.50
2023-02-21T10:47:06.494Z,1.58
2023-02-21T10:49:46.472Z,1.45
2023-02-21T10:52:21.125Z,1.30
2023-02-21T10:55:30.071Z,1.87
2023-02-21T10:58:05.865Z,1.35
2023-02-21T11:00:36.532Z,1.30
2023-02-21T11:03:18.212Z,1.33
2023-02-21T11:05:57.804Z,1.60
2023-02-21T11:08:42.383Z,1.45
2023-02-21T11:11:09.673Z,1.85
2023-02-21T11:13:36.717Z,1.77
2023-02-21T11:16:19.735Z,1.80
2023-02-21T11:18:46.316Z,1.50
2023-02-21T11:21:16.167Z,1.70
2023-02-21T11:24:02.658Z,1.42
2023-02-21T11:26:35.429Z,1.60
2023-02-21T11:29:27.842Z,1.45
2023-02-21T11:31:55.807Z,1.57
2023-02-21T11:34:29.453Z,1.60
2023-02-21T11:37:03.472Z,1.55
2023-02-21T11:39:33.905Z,1.67
2023-02-21T11:42:06.881Z,1.85
2023-02-21T11:44:37.746Z,1.73
2023-02-21T11:47:14.100Z,2.12
2023-02-21T11:50:01.680Z,1.83
2023-02-21T11:52:46.801Z,1.85
2023-02-21T11:55:22.583Z,1.77
2023-02-21T11:58:06.951Z,1.90
2023-02-21T12:00:44.073Z,1.92
2023-02-21T12:21:39.296Z,1.58
2023-02-21T12:56:17.728Z,1.48
2023-02-21T12:58:53.525Z,1.58
2023-02-21T13:01:48.922Z,1.75
2023-02-21T13:04:24.569Z,1.75
2023-02-21T13:06:58.742Z,2.03
2023-02-21T13:09:33.689Z,1.92
2023-02-21T13:12:03.342Z,1.50
2023-02-21T13:14:42.927Z,1.37
2023-02-21T13:18:02.268Z,1.67
2023-02-21T13:21:23.228Z,1.70
2023-02-21T13:24:38.153Z,1.52
2023-02-21T13:27:39.930Z,1.87
2023-02-21T13:30:12.615Z,1.50
2023-02-21T13:32:40.877Z,1.77
2023-02-21T13:35:10.394Z,2.20
2023-02-21T13:37:46.610Z,3.15
2023-02-21T13:40:24.169Z,2.00
2023-02-21T13:43:16.189Z,1.60
2023-02-21T13:45:42.734Z,1.77
2023-02-21T13:48:09.223Z,1.70
2023-02-21T13:50:39.633Z,2.60
2023-02-21T13:53:09.208Z,1.70
2023-02-21T13:55:37.388Z,2.03
2023-02-21T13:58:05.465Z,1.80
2023-02-21T14:00:31.997Z,2.00
2023-02-21T14:03:10.609Z,1.73
2023-02-21T14:05:55.696Z,1.75
2023-02-21T14:08:26.883Z,1.60
2023-02-21T14:11:00.941Z,1.58
2023-02-21T14:13:36.648Z,1.40
2023-02-21T14:16:12.629Z,1.58
2023-02-21T14:18:39.442Z,1.70
2023-02-21T14:21:27.237Z,1.65
2023-02-21T14:24:21.083Z,1.73
2023-02-21T14:26:53.888Z,1.90
2023-02-21T14:29:35.557Z,2.67
2023-02-21T14:32:04.853Z,2.35
2023-02-21T14:34:55.941Z,1.60
2023-02-21T14:38:00.567Z,1.62
2023-02-21T14:40:33.240Z,1.52
2023-02-21T14:43:14.723Z,1.67
2023-02-21T14:46:07.415Z,1.77
2023-02-21T14:48:58.711Z,1.70
2023-02-21T14:52:01.295Z,1.92
2023-02-21T14:55:00.565Z,1.20
2023-02-21T14:57:35.055Z,1.50
2023-02-21T15:00:29.689Z,1.30
2023-02-21T15:03:14.958Z,1.37
2023-02-21T15:05:50.258Z,0.98
2023-02-21T15:08:25.669Z,1.52
2023-02-21T15:11:02.791Z,1.45
2023-02-21T15:13:30.941Z,1.50
2023-02-21T15:16:06.768Z,1.27
2023-02-21T15:18:35.023Z,1.37
2023-02-21T15:21:10.349Z,1.73
2023-02-21T15:23:44.813Z,1.70
2023-02-21T15:26:22.087Z,1.30
2023-02-21T15:29:12.833Z,1.60
2023-02-21T15:31:52.182Z,1.90
2023-02-21T15:34:26.886Z,1.60
2023-02-21T15:37:18.030Z,1.70
2023-02-21T15:39:54.469Z,1.70
2023-02-21T15:42:23.699Z,2.30
2023-02-21T15:44:56.368Z,2.87
2023-02-21T15:47:25.716Z,4.68
2023-02-21T15:50:07.517Z,2.33
2023-02-21T15:52:37.049Z,2.37
2023-02-21T15:55:13.465Z,2.08
2023-02-21T15:57:40.046Z,1.40
2023-02-21T16:00:46.360Z,2.00
2023-02-21T16:03:28.310Z,2.42
2023-02-21T16:05:56.905Z,1.75
2023-02-21T16:09:13.478Z,2.80
2023-02-21T16:12:14.248Z,4.97
2023-02-21T16:14:45.637Z,2.00
2023-02-21T16:17:23.431Z,1.75
2023-02-21T16:19:54.672Z,1.42
2023-02-21T16:22:34.166Z,1.33
2023-02-21T16:25:05.473Z,1.73
2023-02-21T16:27:32.082Z,2.10
2023-02-21T16:29:59.374Z,2.40
2023-02-21T16:32:26.068Z,3.28
2023-02-21T16:34:54.873Z,6.47
2023-02-21T16:37:22.681Z,8.27
2023-02-21T16:39:49.218Z,3.20
2023-02-21T16:44:57.952Z,2.10
2023-02-21T16:47:24.601Z,2.53
2023-02-21T16:49:52.101Z,2.20
2023-02-21T16:52:19.450Z,2.12
2023-02-21T16:54:46.633Z,3.58
2023-02-21T17:01:02.804Z,3.85
2023-02-21T17:03:29.444Z,3.50
2023-02-21T17:05:57.825Z,5.70
2023-02-21T17:08:25.669Z,4.50
2023-02-21T17:10:52.401Z,4.45
2023-02-21T17:13:19.496Z,3.55
2023-02-21T17:15:47.746Z,6.65
2023-02-21T17:18:14.612Z,8.00
2023-02-21T17:20:41.219Z,9.40
2023-02-21T17:23:07.829Z,9.38
2023-02-21T17:25:36.421Z,6.65
2023-02-21T17:28:03.564Z,5.12
2023-02-21T17:30:31.462Z,5.30
2023-02-21T17:32:58.249Z,4.25
2023-02-21T17:35:24.929Z,4.37
2023-02-21T17:37:52.124Z,3.97
2023-02-21T17:40:21.141Z,3.95
2023-02-21T17:42:47.762Z,4.07
2023-02-21T17:45:18.574Z,3.35
2023-02-21T17:47:45.272Z,3.87
2023-02-21T17:50:13.839Z,4.55
2023-02-21T17:52:41.120Z,5.32
2023-02-21T17:55:09.211Z,6.30
2023-02-21T17:57:38.747Z,6.60
2023-02-21T18:00:09.662Z,6.50
2023-02-21T18:02:37.484Z,7.20
2023-02-21T18:05:05.484Z,6.43
2023-02-21T18:07:32.881Z,7.00
2023-02-21T18:10:01.306Z,8.15
2023-02-21T18:12:27.914Z,9.98
2023-02-21T18:14:54.566Z,8.77
2023-02-21T18:17:21.308Z,8.77
2023-02-21T18:19:48.320Z,6.75
2023-02-21T18:22:14.909Z,7.72
2023-02-21T18:24:42.359Z,7.00
2023-02-21T18:27:10.423Z,7.85
2023-02-21T18:29:37.205Z,6.32
2023-02-21T18:32:03.862Z,6.57
2023-02-21T18:34:30.656Z,5.78
2023-02-21T18:36:57.233Z,5.45
2023-02-21T18:39:24.786Z,5.47
2023-02-21T18:41:51.621Z,6.70
2023-02-21T18:44:18.245Z,7.07
2023-02-21T18:46:54.530Z,7.85
2023-02-21T18:49:22.426Z,6.78
2023-02-21T18:51:49.159Z,6.72
2023-02-21T18:54:17.287Z,6.00
2023-02-21T18:56:51.952Z,6.87
2023-02-21T18:59:21.636Z,6.40
2023-02-21T19:01:49.963Z,6.28
2023-02-21T19:04:16.573Z,7.80
2023-02-21T19:06:43.400Z,7.65
2023-02-21T19:09:10.147Z,8.23
2023-02-21T19:11:37.013Z,8.88
2023-02-21T19:14:05.651Z,10.25
2023-02-21T19:16:32.986Z,9.75
2023-02-21T19:19:03.280Z,10.02
2023-02-21T19:21:30.940Z,11.10
2023-02-21T19:23:58.416Z,8.98
2023-02-21T19:26:29.447Z,8.98
2023-02-21T19:28:56.407Z,9.23
2023-02-21T19:31:23.251Z,9.63
2023-02-21T19:33:50.243Z,9.60
2023-02-21T19:36:16.961Z,8.27
2023-02-21T19:38:43.561Z,8.70
2023-02-21T19:41:10.190Z,8.32
2023-02-21T19:43:36.721Z,9.02
2023-02-21T19:46:03.901Z,8.45
2023-02-21T19:48:30.724Z,7.85
2023-02-21T19:50:57.469Z,7.93
2023-02-21T19:53:24.084Z,7.72
2023-02-21T19:55:51.236Z,6.82
2023-02-21T19:58:19.908Z,6.97
2023-02-21T20:00:47.125Z,7.80
2023-02-21T20:03:13.838Z,7.12
2023-02-21T20:05:40.477Z,6.78
2023-02-21T20:08:07.079Z,6.97
2023-02-21T20:10:33.930Z,8.68
2023-02-21T20:13:02.292Z,8.32
2023-02-21T20:15:28.872Z,8.80
2023-02-21T20:17:55.804Z,9.00
2023-02-21T20:20:22.345Z,9.70
2023-02-21T20:22:48.938Z,10.30
2023-02-21T20:25:15.568Z,9.98
2023-02-21T20:27:42.191Z,8.95
2023-02-21T20:32:44.723Z,8.43
2023-02-21T20:35:12.660Z,8.13
2023-02-21T20:37:39.393Z,7.62
2023-02-21T20:40:08.156Z,7.43
2023-02-21T20:42:34.700Z,6.18
2023-02-21T20:45:02.065Z,6.95
2023-02-21T20:50:49.795Z,6.32
2023-02-21T20:53:17.645Z,5.68
2023-02-21T20:55:45.029Z,5.00
2023-02-21T20:58:11.879Z,4.90
2023-02-21T21:00:38.994Z,4.80
2023-02-21T21:03:05.813Z,4.70
2023-02-21T21:05:32.497Z,4.53
2023-02-21T21:07:59.400Z,4.80
2023-02-21T21:10:26.268Z,4.97
2023-02-21T21:12:52.906Z,4.80
2023-02-21T21:15:44.576Z,5.03
2023-02-21T21:19:24.735Z,4.78
2023-02-21T21:21:53.233Z,5.50
2023-02-21T21:24:20.813Z,5.22
2023-02-21T21:26:55.204Z,5.60
2023-02-21T21:29:24.960Z,5.70
2023-02-21T21:31:54.542Z,5.68
2023-02-21T21:34:24.733Z,7.00
2023-02-21T21:36:57.415Z,6.62
2023-02-21T21:39:25.537Z,6.90
2023-02-21T21:41:53.943Z,7.18
2023-02-21T21:44:23.180Z,6.95
2023-02-21T21:46:52.987Z,7.22
2023-02-21T21:51:57.616Z,6.90
2023-02-21T21:54:25.992Z,6.12
2023-02-21T21:56:55.170Z,5.25
2023-02-21T22:00:34.684Z,4.70
2023-02-21T22:03:57.307Z,3.85
2023-02-21T22:06:23.864Z,4.25
2023-02-21T22:08:52.917Z,4.28
2023-02-21T22:11:21.277Z,4.45
2023-02-21T22:13:48.860Z,4.47
2023-02-21T22:16:15.447Z,3.67
2023-02-21T22:21:37.995Z,3.58
2023-02-21T22:24:07.359Z,3.22
2023-02-21T22:26:33.993Z,3.05
2023-02-21T22:29:47.529Z,3.40
2023-02-21T22:33:04.190Z,3.92
2023-02-21T22:35:47.306Z,3.55
2023-02-21T22:38:15.803Z,3.10
2023-02-21T22:40:43.103Z,2.70
2023-02-21T22:43:10.747Z,2.67
2023-02-21T22:45:37.996Z,2.67
2023-02-21T22:48:07.230Z,3.92
2023-02-21T23:11:30.491Z,2.87
2023-02-21T23:14:03.332Z,3.00
2023-02-21T23:16:29.938Z,2.90
2023-02-21T23:18:56.541Z,2.47
2023-02-21T23:21:23.159Z,3.10
2023-02-21T23:26:44.033Z,2.95
2023-02-21T23:29:12.468Z,2.40
2023-02-21T23:31:40.934Z,2.50
2023-02-21T23:34:09.976Z,2.70
2023-02-21T23:36:39.637Z,2.60
2023-02-21T23:42:54.626Z,5.35
2023-02-21T23:50:31.722Z,5.45
